sensor_id;sensor_type;location;lat;lon;timestamp;pressure;altitude;pressure_sealevel;temperature;humidity
50364;BME280;36272;59.400;17.982;2022-10-16T00:00:20;100340.69;;;15.02;93.97
50364;BME280;36272;59.400;17.982;2022-10-16T00:05:22;100333.16;;;15.04;93.43
50364;BME280;36272;59.400;17.982;2022-10-16T00:10:24;100315.91;;;15.00;93.41
50364;BME280;36272;59.400;17.982;2022-10-16T00:15:26;100321.84;;;15.02;92.83
50364;BME280;36272;59.400;17.982;2022-10-16T00:20:28;100321.84;;;15.02;92.59
50364;BME280;36272;59.400;17.982;2022-10-16T00:25:29;100320.78;;;15.03;92.36
50364;BME280;36272;59.400;17.982;2022-10-16T00:30:33;100319.16;;;15.02;92.26
50364;BME280;36272;59.400;17.982;2022-10-16T00:35:38;100324.00;;;15.00;92.18
50364;BME280;36272;59.400;17.982;2022-10-16T00:40:40;100309.41;;;14.96;91.94
50364;BME280;36272;59.400;17.982;2022-10-16T00:45:41;100301.31;;;14.91;91.50
50364;BME280;36272;59.400;17.982;2022-10-16T00:50:43;100301.28;;;14.85;91.58
50364;BME280;36272;59.400;17.982;2022-10-16T00:55:45;100295.34;;;14.83;91.39
50364;BME280;36272;59.400;17.982;2022-10-16T01:00:47;100319.56;;;14.78;91.55
50364;BME280;36272;59.400;17.982;2022-10-16T01:06:07;100288.59;;;14.76;91.69
50364;BME280;36272;59.400;17.982;2022-10-16T01:11:19;100292.34;;;14.75;91.25
50364;BME280;36272;59.400;17.982;2022-10-16T01:21:39;100282.41;;;14.75;91.05
50364;BME280;36272;59.400;17.982;2022-10-16T01:32:32;100294.22;;;14.69;91.29
50364;BME280;36272;59.400;17.982;2022-10-16T01:37:39;100308.22;;;14.71;91.15
50364;BME280;36272;59.400;17.982;2022-10-16T01:42:46;100300.69;;;14.73;90.96
50364;BME280;36272;59.400;17.982;2022-10-16T01:47:49;100305.00;;;14.74;90.78
50364;BME280;36272;59.400;17.982;2022-10-16T01:52:55;100309.00;;;14.71;91.15
50364;BME280;36272;59.400;17.982;2022-10-16T01:57:59;100305.25;;;14.72;91.09
50364;BME280;36272;59.400;17.982;2022-10-16T02:03:04;100311.19;;;14.75;90.73
50364;BME280;36272;59.400;17.982;2022-10-16T02:08:06;100297.22;;;14.78;90.62
50364;BME280;36272;59.400;17.982;2022-10-16T02:18:10;100297.50;;;14.81;90.70
50364;BME280;36272;59.400;17.982;2022-10-16T02:23:19;100285.38;;;14.79;90.52
50364;BME280;36272;59.400;17.982;2022-10-16T02:34:02;100287.81;;;14.85;89.96
50364;BME280;36272;59.400;17.982;2022-10-16T02:39:06;100307.22;;;14.87;89.86
50364;BME280;36272;59.400;17.982;2022-10-16T02:44:09;100306.97;;;14.89;89.98
50364;BME280;36272;59.400;17.982;2022-10-16T02:49:11;100286.47;;;14.83;89.97
50364;BME280;36272;59.400;17.982;2022-10-16T02:54:12;100276.50;;;14.78;89.92
50364;BME280;36272;59.400;17.982;2022-10-16T02:59:14;100262.50;;;14.76;90.02
50364;BME280;36272;59.400;17.982;2022-10-16T03:04:16;100275.13;;;14.76;89.91
50364;BME280;36272;59.400;17.982;2022-10-16T03:09:17;100260.88;;;14.75;89.77
50364;BME280;36272;59.400;17.982;2022-10-16T03:14:19;100266.81;;;14.77;89.95
50364;BME280;36272;59.400;17.982;2022-10-16T03:19:20;100267.31;;;14.79;89.88
50364;BME280;36272;59.400;17.982;2022-10-16T03:24:22;100256.56;;;14.79;89.80
50364;BME280;36272;59.400;17.982;2022-10-16T03:29:24;100255.50;;;14.80;89.87
50364;BME280;36272;59.400;17.982;2022-10-16T03:34:27;100261.41;;;14.77;89.75
50364;BME280;36272;59.400;17.982;2022-10-16T03:39:29;100270.00;;;14.74;90.04
50364;BME280;36272;59.400;17.982;2022-10-16T03:44:30;100246.31;;;14.71;89.99
50364;BME280;36272;59.400;17.982;2022-10-16T03:49:32;100247.88;;;14.67;89.68
50364;BME280;36272;59.400;17.982;2022-10-16T03:54:34;100238.69;;;14.63;89.51
50364;BME280;36272;59.400;17.982;2022-10-16T03:59:35;100248.91;;;14.61;89.58
50364;BME280;36272;59.400;17.982;2022-10-16T04:04:37;100251.84;;;14.59;89.62
50364;BME280;36272;59.400;17.982;2022-10-16T04:09:38;100237.03;;;14.56;89.46
50364;BME280;36272;59.400;17.982;2022-10-16T04:14:40;100235.94;;;14.52;89.44
50364;BME280;36272;59.400;17.982;2022-10-16T04:19:42;100252.59;;;14.49;89.65
50364;BME280;36272;59.400;17.982;2022-10-16T04:24:43;100243.69;;;14.43;89.75
50364;BME280;36272;59.400;17.982;2022-10-16T04:29:45;100252.00;;;14.42;89.51
50364;BME280;36272;59.400;17.982;2022-10-16T04:34:47;100261.94;;;14.36;89.75
50364;BME280;36272;59.400;17.982;2022-10-16T04:39:48;100271.91;;;14.41;89.58
50364;BME280;36272;59.400;17.982;2022-10-16T04:44:50;100247.19;;;14.44;89.41
50364;BME280;36272;59.400;17.982;2022-10-16T04:49:51;100252.31;;;14.46;89.30
50364;BME280;36272;59.400;17.982;2022-10-16T04:54:53;100264.91;;;14.40;89.28
50364;BME280;36272;59.400;17.982;2022-10-16T04:59:55;100256.50;;;14.31;89.64
50364;BME280;36272;59.400;17.982;2022-10-16T05:04:57;100255.41;;;14.27;89.81
50364;BME280;36272;59.400;17.982;2022-10-16T05:09:58;100258.88;;;14.22;89.82
50364;BME280;36272;59.400;17.982;2022-10-16T05:15:00;100258.59;;;14.24;89.87
50364;BME280;36272;59.400;17.982;2022-10-16T05:20:02;100266.34;;;14.15;90.25
50364;BME280;36272;59.400;17.982;2022-10-16T05:25:04;100255.00;;;14.08;90.72
50364;BME280;36272;59.400;17.982;2022-10-16T05:30:07;100246.88;;;14.03;91.06
50364;BME280;36272;59.400;17.982;2022-10-16T05:35:09;100243.91;;;13.99;91.06
50364;BME280;36272;59.400;17.982;2022-10-16T05:40:15;100236.59;;;13.94;91.55
50364;BME280;36272;59.400;17.982;2022-10-16T05:45:18;100260.78;;;13.94;91.50
50364;BME280;36272;59.400;17.982;2022-10-16T05:50:19;100251.41;;;13.97;91.64
50364;BME280;36272;59.400;17.982;2022-10-16T05:55:21;100266.22;;;14.00;91.72
50364;BME280;36272;59.400;17.982;2022-10-16T06:00:23;100266.25;;;14.05;91.89
50364;BME280;36272;59.400;17.982;2022-10-16T06:05:25;100258.50;;;14.08;91.76
50364;BME280;36272;59.400;17.982;2022-10-16T06:10:27;100279.50;;;14.11;91.79
50364;BME280;36272;59.400;17.982;2022-10-16T06:15:30;100274.94;;;14.12;92.14
50364;BME280;36272;59.400;17.982;2022-10-16T06:20:37;100270.09;;;14.14;92.55
50364;BME280;36272;59.400;17.982;2022-10-16T06:25:39;100294.91;;;14.21;92.16
50364;BME280;36272;59.400;17.982;2022-10-16T06:30:40;100297.13;;;14.30;92.15
50364;BME280;36272;59.400;17.982;2022-10-16T06:35:44;100315.44;;;14.33;92.54
50364;BME280;36272;59.400;17.982;2022-10-16T06:40:50;100299.88;;;14.40;92.32
50364;BME280;36272;59.400;17.982;2022-10-16T06:45:55;100307.47;;;14.48;92.29
50364;BME280;36272;59.400;17.982;2022-10-16T06:56:19;100303.53;;;14.61;92.15
50364;BME280;36272;59.400;17.982;2022-10-16T07:01:26;100305.78;;;14.69;92.10
50364;BME280;36272;59.400;17.982;2022-10-16T07:06:31;100307.44;;;14.76;91.75
50364;BME280;36272;59.400;17.982;2022-10-16T07:11:33;100326.03;;;14.82;91.07
50364;BME280;36272;59.400;17.982;2022-10-16T07:16:34;100324.41;;;14.81;91.41
50364;BME280;36272;59.400;17.982;2022-10-16T07:21:36;100328.19;;;14.85;91.12
50364;BME280;36272;59.400;17.982;2022-10-16T07:26:39;100318.00;;;14.87;91.16
50364;BME280;36272;59.400;17.982;2022-10-16T07:31:42;100317.78;;;14.94;90.87
50364;BME280;36272;59.400;17.982;2022-10-16T07:36:46;100331.78;;;15.01;90.31
50364;BME280;36272;59.400;17.982;2022-10-16T07:41:48;100335.34;;;15.07;90.36
50364;BME280;36272;59.400;17.982;2022-10-16T07:46:50;100330.50;;;15.09;90.17
50364;BME280;36272;59.400;17.982;2022-10-16T07:51:51;100330.50;;;15.09;89.38
50364;BME280;36272;59.400;17.982;2022-10-16T07:56:53;100339.94;;;15.12;89.56
50364;BME280;36272;59.400;17.982;2022-10-16T08:01:54;100334.53;;;15.12;88.94
50364;BME280;36272;59.400;17.982;2022-10-16T08:06:58;100333.75;;;15.11;88.71
50364;BME280;36272;59.400;17.982;2022-10-16T08:12:00;100339.69;;;15.13;88.05
50364;BME280;36272;59.400;17.982;2022-10-16T08:17:01;100348.31;;;15.15;88.07
50364;BME280;36272;59.400;17.982;2022-10-16T08:22:05;100348.34;;;15.21;87.75
50364;BME280;36272;59.400;17.982;2022-10-16T08:27:07;100344.28;;;15.18;87.65
50364;BME280;36272;59.400;17.982;2022-10-16T08:32:10;100349.41;;;15.25;86.99
50364;BME280;36272;59.400;17.982;2022-10-16T08:37:11;100351.88;;;15.26;87.05
50364;BME280;36272;59.400;17.982;2022-10-16T08:52:56;100346.22;;;15.33;86.33
50364;BME280;36272;59.400;17.982;2022-10-16T08:57:59;100349.47;;;15.35;85.83
50364;BME280;36272;59.400;17.982;2022-10-16T09:03:18;100345.44;;;15.32;85.53
50364;BME280;36272;59.400;17.982;2022-10-16T09:14:23;100344.41;;;15.44;85.23
50364;BME280;36272;59.400;17.982;2022-10-16T09:19:41;100353.06;;;15.56;85.11
50364;BME280;36272;59.400;17.982;2022-10-16T09:24:46;100356.06;;;15.70;84.64
50364;BME280;36272;59.400;17.982;2022-10-16T09:29:48;100352.88;;;15.84;84.04
50364;BME280;36272;59.400;17.982;2022-10-16T09:34:53;100336.22;;;15.97;83.36
50364;BME280;36272;59.400;17.982;2022-10-16T09:39:57;100352.13;;;15.88;82.46
50364;BME280;36272;59.400;17.982;2022-10-16T09:44:59;100363.69;;;15.89;82.06
50364;BME280;36272;59.400;17.982;2022-10-16T09:50:18;100342.38;;;15.93;81.67
50364;BME280;36272;59.400;17.982;2022-10-16T09:55:21;100354.56;;;16.00;82.50
50364;BME280;36272;59.400;17.982;2022-10-16T10:00:24;100338.66;;;16.09;81.97
50364;BME280;36272;59.400;17.982;2022-10-16T10:05:27;100338.91;;;16.18;81.81
50364;BME280;36272;59.400;17.982;2022-10-16T10:10:32;100341.63;;;16.23;81.35
50364;BME280;36272;59.400;17.982;2022-10-16T10:15:41;100335.44;;;16.23;79.94
50364;BME280;36272;59.400;17.982;2022-10-16T10:20:43;100343.22;;;16.19;79.38
50364;BME280;36272;59.400;17.982;2022-10-16T10:31:18;100337.03;;;16.08;78.31
50364;BME280;36272;59.400;17.982;2022-10-16T10:46:56;100339.47;;;16.25;78.22
50364;BME280;36272;59.400;17.982;2022-10-16T10:57:30;100337.84;;;16.34;77.40
50364;BME280;36272;59.400;17.982;2022-10-16T11:02:44;100316.50;;;16.59;77.02
50364;BME280;36272;59.400;17.982;2022-10-16T11:07:50;100337.25;;;16.84;76.24
50364;BME280;36272;59.400;17.982;2022-10-16T11:12:59;100323.63;;;17.41;74.69
50364;BME280;36272;59.400;17.982;2022-10-16T11:24:12;100312.53;;;18.57;68.90
50364;BME280;36272;59.400;17.982;2022-10-16T11:28:55;100301.63;;;18.03;70.52
50364;BME280;36272;59.400;17.982;2022-10-16T11:39:29;100296.16;;;18.08;71.26
50364;BME280;36272;59.400;17.982;2022-10-16T11:44:51;100288.38;;;17.96;70.32
50364;BME280;36272;59.400;17.982;2022-10-16T11:50:06;100284.78;;;17.66;70.70
50364;BME280;36272;59.400;17.982;2022-10-16T11:55:39;100281.44;;;17.40;70.93
50364;BME280;36272;59.400;17.982;2022-10-16T12:06:37;100256.44;;;17.14;71.79
50364;BME280;36272;59.400;17.982;2022-10-16T12:11:41;100259.06;;;17.29;71.85
50364;BME280;36272;59.400;17.982;2022-10-16T12:17:03;100251.41;;;17.42;71.56
50364;BME280;36272;59.400;17.982;2022-10-16T12:22:17;100244.22;;;17.27;70.48
50364;BME280;36272;59.400;17.982;2022-10-16T12:27:30;100235.56;;;17.24;71.37
50364;BME280;36272;59.400;17.982;2022-10-16T12:32:37;100225.34;;;17.16;70.93
50364;BME280;36272;59.400;17.982;2022-10-16T12:37:40;100246.44;;;17.14;71.68
50364;BME280;36272;59.400;17.982;2022-10-16T12:42:42;100239.97;;;17.10;71.68
50364;BME280;36272;59.400;17.982;2022-10-16T12:47:52;100212.44;;;17.03;72.04
50364;BME280;36272;59.400;17.982;2022-10-16T12:52:55;100214.59;;;17.01;72.76
50364;BME280;36272;59.400;17.982;2022-10-16T13:24:52;100157.63;;;17.02;73.29
50364;BME280;36272;59.400;17.982;2022-10-16T13:30:12;100155.13;;;17.11;72.63
50364;BME280;36272;59.400;17.982;2022-10-16T13:35:23;100150.28;;;17.08;72.42
50364;BME280;36272;59.400;17.982;2022-10-16T13:40:25;100154.59;;;17.09;72.73
50364;BME280;36272;59.400;17.982;2022-10-16T13:45:27;100150.47;;;17.22;72.34
50364;BME280;36272;59.400;17.982;2022-10-16T13:50:28;100130.53;;;17.13;71.75
50364;BME280;36272;59.400;17.982;2022-10-16T13:55:30;100117.38;;;16.95;72.04
50364;BME280;36272;59.400;17.982;2022-10-16T14:00:32;100123.91;;;16.89;72.63
50364;BME280;36272;59.400;17.982;2022-10-16T14:05:34;100161.03;;;16.53;74.17
50364;BME280;36272;59.400;17.982;2022-10-16T14:10:36;100165.22;;;16.03;77.11
50364;BME280;36272;59.400;17.982;2022-10-16T14:15:38;100167.63;;;15.74;77.72
50364;BME280;36272;59.400;17.982;2022-10-16T14:20:39;100183.56;;;15.65;78.10
50364;BME280;36272;59.400;17.982;2022-10-16T14:25:41;100172.75;;;15.50;77.82
50364;BME280;36272;59.400;17.982;2022-10-16T14:30:59;100137.72;;;15.44;77.57
50364;BME280;36272;59.400;17.982;2022-10-16T14:36:11;100165.75;;;15.49;77.46
50364;BME280;36272;59.400;17.982;2022-10-16T14:41:15;100147.69;;;15.49;77.34
50364;BME280;36272;59.400;17.982;2022-10-16T14:46:19;100156.56;;;15.44;77.27
50364;BME280;36272;59.400;17.982;2022-10-16T14:51:21;100151.44;;;15.48;77.55
50364;BME280;36272;59.400;17.982;2022-10-16T14:56:25;100131.78;;;15.48;77.31
50364;BME280;36272;59.400;17.982;2022-10-16T15:01:29;100132.88;;;15.52;77.18
50364;BME280;36272;59.400;17.982;2022-10-16T15:06:31;100141.22;;;15.55;76.98
50364;BME280;36272;59.400;17.982;2022-10-16T15:11:33;100131.78;;;15.58;76.93
50364;BME280;36272;59.400;17.982;2022-10-16T15:16:35;100148.50;;;15.55;77.78
50364;BME280;36272;59.400;17.982;2022-10-16T15:21:52;100135.78;;;14.98;81.46
50364;BME280;36272;59.400;17.982;2022-10-16T15:27:12;100118.88;;;14.50;81.55
50364;BME280;36272;59.400;17.982;2022-10-16T15:32:13;100207.81;;;13.35;86.94
50364;BME280;36272;59.400;17.982;2022-10-16T15:37:15;100206.28;;;12.94;90.96
50364;BME280;36272;59.400;17.982;2022-10-16T15:42:16;100193.25;;;12.81;92.40
50364;BME280;36272;59.400;17.982;2022-10-16T15:47:18;100196.53;;;12.66;93.27
50364;BME280;36272;59.400;17.982;2022-10-16T15:52:20;100233.47;;;12.59;94.09
50364;BME280;36272;59.400;17.982;2022-10-16T15:57:21;100216.69;;;12.46;96.28
50364;BME280;36272;59.400;17.982;2022-10-16T16:02:30;100196.22;;;12.40;96.49
50364;BME280;36272;59.400;17.982;2022-10-16T16:07:36;100214.53;;;12.26;97.14
50364;BME280;36272;59.400;17.982;2022-10-16T16:12:38;100221.66;;;12.20;97.00
50364;BME280;36272;59.400;17.982;2022-10-16T16:17:40;100231.91;;;12.07;97.10
50364;BME280;36272;59.400;17.982;2022-10-16T16:22:41;100219.53;;;11.88;97.23
50364;BME280;36272;59.400;17.982;2022-10-16T16:27:43;100193.03;;;11.75;97.55
50364;BME280;36272;59.400;17.982;2022-10-16T16:32:50;100140.84;;;11.60;98.01
50364;BME280;36272;59.400;17.982;2022-10-16T16:37:52;100130.75;;;11.51;98.25
50364;BME280;36272;59.400;17.982;2022-10-16T16:42:53;100138.72;;;11.45;98.37
50364;BME280;36272;59.400;17.982;2022-10-16T16:47:55;100149.97;;;11.30;98.36
50364;BME280;36272;59.400;17.982;2022-10-16T16:58:08;100181.81;;;11.15;98.57
50364;BME280;36272;59.400;17.982;2022-10-16T17:03:10;100175.69;;;11.03;99.03
50364;BME280;36272;59.400;17.982;2022-10-16T17:08:21;100166.88;;;10.90;99.41
50364;BME280;36272;59.400;17.982;2022-10-16T17:13:27;100160.53;;;10.79;99.27
50364;BME280;36272;59.400;17.982;2022-10-16T17:18:29;100183.13;;;10.71;99.40
50364;BME280;36272;59.400;17.982;2022-10-16T17:24:08;100176.03;;;10.65;100.00
50364;BME280;36272;59.400;17.982;2022-10-16T17:29:20;100168.47;;;10.62;99.94
50364;BME280;36272;59.400;17.982;2022-10-16T17:34:23;100190.91;;;10.61;99.57
50364;BME280;36272;59.400;17.982;2022-10-16T17:39:48;100201.97;;;10.53;99.47
50364;BME280;36272;59.400;17.982;2022-10-16T17:45:45;100194.75;;;10.41;99.80
50364;BME280;36272;59.400;17.982;2022-10-16T17:51:03;100210.91;;;10.35;99.36
50364;BME280;36272;59.400;17.982;2022-10-16T18:02:26;100224.84;;;10.25;99.59
50364;BME280;36272;59.400;17.982;2022-10-16T18:38:41;100285.03;;;10.16;100.00
50364;BME280;36272;59.400;17.982;2022-10-16T18:43:46;100285.50;;;10.24;100.00
50364;BME280;36272;59.400;17.982;2022-10-16T18:48:48;100285.16;;;10.33;100.00
50364;BME280;36272;59.400;17.982;2022-10-16T18:54:30;100282.41;;;10.39;100.00
50364;BME280;36272;59.400;17.982;2022-10-16T18:59:56;100291.13;;;10.47;100.00
50364;BME280;36272;59.400;17.982;2022-10-16T19:05:00;100297.53;;;10.46;100.00
50364;BME280;36272;59.400;17.982;2022-10-16T19:10:03;100309.72;;;10.41;100.00
50364;BME280;36272;59.400;17.982;2022-10-16T19:15:16;100301.94;;;10.40;100.00
50364;BME280;36272;59.400;17.982;2022-10-16T19:20:20;100322.50;;;10.39;100.00
50364;BME280;36272;59.400;17.982;2022-10-16T19:25:22;100333.19;;;10.39;100.00
50364;BME280;36272;59.400;17.982;2022-10-16T19:30:23;100343.44;;;10.43;100.00
50364;BME280;36272;59.400;17.982;2022-10-16T19:35:27;100340.75;;;10.43;99.97
50364;BME280;36272;59.400;17.982;2022-10-16T19:40:29;100360.06;;;10.45;99.39
50364;BME280;36272;59.400;17.982;2022-10-16T19:45:31;100354.97;;;10.43;99.71
50364;BME280;36272;59.400;17.982;2022-10-16T19:50:47;100349.81;;;10.41;99.78
50364;BME280;36272;59.400;17.982;2022-10-16T19:55:53;100358.44;;;10.44;99.91
50364;BME280;36272;59.400;17.982;2022-10-16T20:01:02;100367.41;;;10.49;99.82
50364;BME280;36272;59.400;17.982;2022-10-16T20:06:05;100363.25;;;10.53;99.31
50364;BME280;36272;59.400;17.982;2022-10-16T20:11:12;100363.00;;;10.55;99.11
50364;BME280;36272;59.400;17.982;2022-10-16T20:16:15;100361.38;;;10.54;98.82
50364;BME280;36272;59.400;17.982;2022-10-16T20:21:31;100354.97;;;10.55;98.98
50364;BME280;36272;59.400;17.982;2022-10-16T20:26:36;100373.22;;;10.58;98.46
50364;BME280;36272;59.400;17.982;2022-10-16T20:31:39;100372.44;;;10.58;98.07
50364;BME280;36272;59.400;17.982;2022-10-16T20:36:40;100396.25;;;10.59;97.93
50364;BME280;36272;59.400;17.982;2022-10-16T20:41:43;100396.84;;;10.61;97.60
50364;BME280;36272;59.400;17.982;2022-10-16T20:46:45;100409.63;;;10.59;97.51
50364;BME280;36272;59.400;17.982;2022-10-16T20:51:46;100408.34;;;10.62;97.19
50364;BME280;36272;59.400;17.982;2022-10-16T20:56:50;100419.88;;;10.62;96.45
50364;BME280;36272;59.400;17.982;2022-10-16T21:01:53;100428.69;;;10.63;96.24
50364;BME280;36272;59.400;17.982;2022-10-16T21:06:54;100434.03;;;10.63;96.40
50364;BME280;36272;59.400;17.982;2022-10-16T21:11:56;100445.13;;;10.66;95.64
50364;BME280;36272;59.400;17.982;2022-10-16T21:16:58;100444.66;;;10.69;94.85
50364;BME280;36272;59.400;17.982;2022-10-16T21:21:59;100447.34;;;10.69;94.82
50364;BME280;36272;59.400;17.982;2022-10-16T21:27:01;100451.41;;;10.72;93.95
50364;BME280;36272;59.400;17.982;2022-10-16T21:32:03;100431.03;;;10.71;93.75
50364;BME280;36272;59.400;17.982;2022-10-16T21:37:04;100450.81;;;10.70;93.21
50364;BME280;36272;59.400;17.982;2022-10-16T21:42:06;100470.38;;;10.70;93.70
50364;BME280;36272;59.400;17.982;2022-10-16T21:47:08;100486.91;;;10.79;93.83
50364;BME280;36272;59.400;17.982;2022-10-16T21:52:09;100495.84;;;10.85;93.26
50364;BME280;36272;59.400;17.982;2022-10-16T21:57:11;100516.94;;;10.93;92.40
50364;BME280;36272;59.400;17.982;2022-10-16T22:02:13;100518.69;;;10.99;92.32
50364;BME280;36272;59.400;17.982;2022-10-16T22:07:15;100516.41;;;11.03;92.24
50364;BME280;36272;59.400;17.982;2022-10-16T22:12:17;100521.50;;;11.05;92.34
50364;BME280;36272;59.400;17.982;2022-10-16T22:17:20;100536.28;;;11.07;93.05
50364;BME280;36272;59.400;17.982;2022-10-16T22:22:21;100529.19;;;11.01;91.99
50364;BME280;36272;59.400;17.982;2022-10-16T22:27:23;100534.41;;;10.96;91.82
50364;BME280;36272;59.400;17.982;2022-10-16T22:32:25;100542.91;;;10.93;92.45
50364;BME280;36272;59.400;17.982;2022-10-16T22:37:26;100552.19;;;10.90;91.75
50364;BME280;36272;59.400;17.982;2022-10-16T22:42:28;100566.59;;;10.89;92.20
50364;BME280;36272;59.400;17.982;2022-10-16T22:47:29;100577.31;;;10.89;92.50
50364;BME280;36272;59.400;17.982;2022-10-16T22:52:31;100594.53;;;10.93;92.61
50364;BME280;36272;59.400;17.982;2022-10-16T22:57:33;100612.03;;;10.96;92.39
50364;BME280;36272;59.400;17.982;2022-10-16T23:02:34;100602.50;;;11.00;92.67
50364;BME280;36272;59.400;17.982;2022-10-16T23:07:36;100605.16;;;11.00;92.46
50364;BME280;36272;59.400;17.982;2022-10-16T23:12:38;100622.28;;;10.99;92.79
50364;BME280;36272;59.400;17.982;2022-10-16T23:17:39;100638.53;;;10.97;92.87
50364;BME280;36272;59.400;17.982;2022-10-16T23:22:41;100636.91;;;10.96;91.79
50364;BME280;36272;59.400;17.982;2022-10-16T23:27:43;100638.25;;;10.87;92.15
50364;BME280;36272;59.400;17.982;2022-10-16T23:32:44;100649.06;;;10.80;92.45
50364;BME280;36272;59.400;17.982;2022-10-16T23:37:46;100639.19;;;10.81;92.32
50364;BME280;36272;59.400;17.982;2022-10-16T23:42:47;100651.13;;;10.78;91.85
50364;BME280;36272;59.400;17.982;2022-10-16T23:47:49;100664.97;;;10.75;92.62
50364;BME280;36272;59.400;17.982;2022-10-16T23:52:51;100675.91;;;10.74;92.13
50364;BME280;36272;59.400;17.982;2022-10-16T23:57:52;100679.16;;;10.76;91.93
